sensor_id;sensor_type;location;lat;lon;timestamp;temperature;humidity
64961;SHT31;51487;52.266;10.542;2023-08-30T00:00:19;15.30;86.15
64961;SHT31;51487;52.266;10.542;2023-08-30T00:02:47;15.32;86.15
64961;SHT31;51487;52.266;10.542;2023-08-30T00:05:14;15.22;86.41
64961;SHT31;51487;52.266;10.542;2023-08-30T00:07:39;15.22;86.48
64961;SHT31;51487;52.266;10.542;2023-08-30T00:10:07;15.20;86.56
64961;SHT31;51487;52.266;10.542;2023-08-30T00:12:34;15.19;86.41
64961;SHT31;51487;52.266;10.542;2023-08-30T00:14:59;15.18;86.42
64961;SHT31;51487;52.266;10.542;2023-08-30T00:17:25;15.16;86.29
64961;SHT31;51487;52.266;10.542;2023-08-30T00:19:51;15.09;87.07
64961;SHT31;51487;52.266;10.542;2023-08-30T00:22:18;15.07;87.32
64961;SHT31;51487;52.266;10.542;2023-08-30T00:24:44;15.02;87.57
64961;SHT31;51487;52.266;10.542;2023-08-30T00:27:11;14.98;87.49
64961;SHT31;51487;52.266;10.542;2023-08-30T00:29:37;14.89;87.75
64961;SHT31;51487;52.266;10.542;2023-08-30T00:32:03;14.88;88.10
64961;SHT31;51487;52.266;10.542;2023-08-30T00:34:29;14.85;88.16
64961;SHT31;51487;52.266;10.542;2023-08-30T00:36:54;14.82;88.20
64961;SHT31;51487;52.266;10.542;2023-08-30T00:39:19;14.82;88.45
64961;SHT31;51487;52.266;10.542;2023-08-30T00:41:45;14.71;88.55
64961;SHT31;51487;52.266;10.542;2023-08-30T00:44:10;14.63;88.79
64961;SHT31;51487;52.266;10.542;2023-08-30T00:46:36;14.61;88.91
64961;SHT31;51487;52.266;10.542;2023-08-30T00:49:04;14.68;89.03
64961;SHT31;51487;52.266;10.542;2023-08-30T00:51:30;14.60;89.44
64961;SHT31;51487;52.266;10.542;2023-08-30T00:53:58;14.61;89.45
64961;SHT31;51487;52.266;10.542;2023-08-30T00:56:27;14.52;89.28
64961;SHT31;51487;52.266;10.542;2023-08-30T00:58:53;14.45;89.77
64961;SHT31;51487;52.266;10.542;2023-08-30T01:01:19;14.40;89.85
64961;SHT31;51487;52.266;10.542;2023-08-30T01:03:45;14.40;90.02
64961;SHT31;51487;52.266;10.542;2023-08-30T01:06:10;14.38;89.89
64961;SHT31;51487;52.266;10.542;2023-08-30T01:08:37;14.38;89.70
64961;SHT31;51487;52.266;10.542;2023-08-30T01:11:31;14.35;89.81
64961;SHT31;51487;52.266;10.542;2023-08-30T01:14:07;14.33;89.88
64961;SHT31;51487;52.266;10.542;2023-08-30T01:16:35;14.35;90.08
64961;SHT31;51487;52.266;10.542;2023-08-30T01:22:03;14.12;90.13
64961;SHT31;51487;52.266;10.542;2023-08-30T01:27:16;14.03;90.57
64961;SHT31;51487;52.266;10.542;2023-08-30T01:29:45;14.02;90.65
64961;SHT31;51487;52.266;10.542;2023-08-30T01:32:12;14.02;90.44
64961;SHT31;51487;52.266;10.542;2023-08-30T01:34:40;13.95;90.83
64961;SHT31;51487;52.266;10.542;2023-08-30T01:37:07;13.97;90.68
64961;SHT31;51487;52.266;10.542;2023-08-30T01:39:36;13.90;90.80
64961;SHT31;51487;52.266;10.542;2023-08-30T01:42:04;13.87;90.93
64961;SHT31;51487;52.266;10.542;2023-08-30T01:44:30;13.83;91.11
64961;SHT31;51487;52.266;10.542;2023-08-30T01:46:57;13.83;90.93
64961;SHT31;51487;52.266;10.542;2023-08-30T01:49:25;13.83;91.10
64961;SHT31;51487;52.266;10.542;2023-08-30T01:51:51;13.77;91.17
64961;SHT31;51487;52.266;10.542;2023-08-30T01:54:18;13.73;91.45
64961;SHT31;51487;52.266;10.542;2023-08-30T01:56:46;13.73;91.18
64961;SHT31;51487;52.266;10.542;2023-08-30T01:59:12;13.76;91.37
64961;SHT31;51487;52.266;10.542;2023-08-30T02:01:38;13.80;91.15
64961;SHT31;51487;52.266;10.542;2023-08-30T02:04:04;13.80;91.06
64961;SHT31;51487;52.266;10.542;2023-08-30T02:06:58;13.75;90.89
64961;SHT31;51487;52.266;10.542;2023-08-30T02:09:42;13.70;91.04
64961;SHT31;51487;52.266;10.542;2023-08-30T02:12:15;13.66;91.12
64961;SHT31;51487;52.266;10.542;2023-08-30T02:14:47;13.61;91.29
64961;SHT31;51487;52.266;10.542;2023-08-30T02:17:17;13.56;91.46
64961;SHT31;51487;52.266;10.542;2023-08-30T02:19:45;13.55;91.61
64961;SHT31;51487;52.266;10.542;2023-08-30T02:22:11;13.54;91.75
64961;SHT31;51487;52.266;10.542;2023-08-30T02:24:37;13.69;91.69
64961;SHT31;51487;52.266;10.542;2023-08-30T02:27:03;13.70;91.61
64961;SHT31;51487;52.266;10.542;2023-08-30T02:29:29;13.70;91.43
64961;SHT31;51487;52.266;10.542;2023-08-30T02:31:54;13.67;91.53
64961;SHT31;51487;52.266;10.542;2023-08-30T02:34:20;13.66;91.61
64961;SHT31;51487;52.266;10.542;2023-08-30T02:36:45;13.61;91.76
64961;SHT31;51487;52.266;10.542;2023-08-30T02:39:14;13.59;91.93
64961;SHT31;51487;52.266;10.542;2023-08-30T02:41:40;13.63;91.79
64961;SHT31;51487;52.266;10.542;2023-08-30T02:44:11;13.58;91.70
64961;SHT31;51487;52.266;10.542;2023-08-30T02:46:37;13.48;92.04
64961;SHT31;51487;52.266;10.542;2023-08-30T02:49:07;13.48;92.16
64961;SHT31;51487;52.266;10.542;2023-08-30T02:51:32;13.45;92.19
64961;SHT31;51487;52.266;10.542;2023-08-30T02:53:58;13.46;92.11
64961;SHT31;51487;52.266;10.542;2023-08-30T02:56:23;13.45;92.42
64961;SHT31;51487;52.266;10.542;2023-08-30T02:58:50;13.45;92.40
64961;SHT31;51487;52.266;10.542;2023-08-30T03:01:16;13.48;92.28
64961;SHT31;51487;52.266;10.542;2023-08-30T03:03:41;13.48;92.03
64961;SHT31;51487;52.266;10.542;2023-08-30T03:06:07;13.44;92.26
64961;SHT31;51487;52.266;10.542;2023-08-30T03:08:32;13.32;92.55
64961;SHT31;51487;52.266;10.542;2023-08-30T03:11:11;13.38;92.79
64961;SHT31;51487;52.266;10.542;2023-08-30T03:13:37;13.45;92.45
64961;SHT31;51487;52.266;10.542;2023-08-30T03:16:13;13.38;92.44
64961;SHT31;51487;52.266;10.542;2023-08-30T03:18:40;13.45;92.52
64961;SHT31;51487;52.266;10.542;2023-08-30T03:21:06;13.51;92.38
64961;SHT31;51487;52.266;10.542;2023-08-30T03:23:32;13.44;92.29
64961;SHT31;51487;52.266;10.542;2023-08-30T03:25:59;13.49;92.26
64961;SHT31;51487;52.266;10.542;2023-08-30T03:28:25;13.56;91.55
64961;SHT31;51487;52.266;10.542;2023-08-30T03:30:52;13.52;91.23
64961;SHT31;51487;52.266;10.542;2023-08-30T03:33:18;13.41;91.29
64961;SHT31;51487;52.266;10.542;2023-08-30T03:35:44;13.27;92.19
64961;SHT31;51487;52.266;10.542;2023-08-30T03:38:09;13.18;92.34
64961;SHT31;51487;52.266;10.542;2023-08-30T03:40:35;13.14;92.55
64961;SHT31;51487;52.266;10.542;2023-08-30T03:43:00;13.07;92.99
64961;SHT31;51487;52.266;10.542;2023-08-30T03:45:26;13.03;93.08
64961;SHT31;51487;52.266;10.542;2023-08-30T03:47:51;13.04;92.98
64961;SHT31;51487;52.266;10.542;2023-08-30T03:50:17;13.04;92.99
64961;SHT31;51487;52.266;10.542;2023-08-30T03:52:42;13.04;93.20
64961;SHT31;51487;52.266;10.542;2023-08-30T03:55:08;13.06;93.18
64961;SHT31;51487;52.266;10.542;2023-08-30T03:57:33;13.10;93.25
64961;SHT31;51487;52.266;10.542;2023-08-30T03:59:59;13.15;93.12
64961;SHT31;51487;52.266;10.542;2023-08-30T04:02:25;13.18;93.00
64961;SHT31;51487;52.266;10.542;2023-08-30T04:04:50;13.17;92.94
64961;SHT31;51487;52.266;10.542;2023-08-30T04:07:16;13.14;93.22
64961;SHT31;51487;52.266;10.542;2023-08-30T04:09:41;13.14;93.14
64961;SHT31;51487;52.266;10.542;2023-08-30T04:12:07;13.22;93.00
64961;SHT31;51487;52.266;10.542;2023-08-30T04:14:33;13.22;93.03
64961;SHT31;51487;52.266;10.542;2023-08-30T04:16:58;13.28;92.82
64961;SHT31;51487;52.266;10.542;2023-08-30T04:19:23;13.27;92.81
64961;SHT31;51487;52.266;10.542;2023-08-30T04:21:49;13.28;92.54
64961;SHT31;51487;52.266;10.542;2023-08-30T04:24:15;13.27;92.71
64961;SHT31;51487;52.266;10.542;2023-08-30T04:26:41;13.15;93.14
64961;SHT31;51487;52.266;10.542;2023-08-30T04:29:07;13.21;92.86
64961;SHT31;51487;52.266;10.542;2023-08-30T04:31:32;13.14;92.93
64961;SHT31;51487;52.266;10.542;2023-08-30T04:33:58;13.10;93.14
64961;SHT31;51487;52.266;10.542;2023-08-30T04:36:23;13.03;93.02
64961;SHT31;51487;52.266;10.542;2023-08-30T04:38:49;13.04;92.82
64961;SHT31;51487;52.266;10.542;2023-08-30T04:41:14;13.06;92.72
64961;SHT31;51487;52.266;10.542;2023-08-30T04:43:41;13.04;92.61
64961;SHT31;51487;52.266;10.542;2023-08-30T04:46:07;13.06;92.64
64961;SHT31;51487;52.266;10.542;2023-08-30T04:48:32;13.04;92.70
64961;SHT31;51487;52.266;10.542;2023-08-30T04:51:01;13.06;92.60
64961;SHT31;51487;52.266;10.542;2023-08-30T04:53:26;13.11;92.31
64961;SHT31;51487;52.266;10.542;2023-08-30T04:55:52;12.97;92.42
64961;SHT31;51487;52.266;10.542;2023-08-30T04:58:17;13.03;92.36
64961;SHT31;51487;52.266;10.542;2023-08-30T05:00:43;13.04;92.37
64961;SHT31;51487;52.266;10.542;2023-08-30T05:03:08;13.07;92.33
64961;SHT31;51487;52.266;10.542;2023-08-30T05:05:34;13.15;92.22
64961;SHT31;51487;52.266;10.542;2023-08-30T05:08:00;13.08;92.04
64961;SHT31;51487;52.266;10.542;2023-08-30T05:10:25;13.14;91.95
64961;SHT31;51487;52.266;10.542;2023-08-30T05:12:51;13.17;92.06
64961;SHT31;51487;52.266;10.542;2023-08-30T05:15:18;13.14;92.02
64961;SHT31;51487;52.266;10.542;2023-08-30T05:17:43;13.22;91.89
64961;SHT31;51487;52.266;10.542;2023-08-30T05:20:09;13.27;91.69
64961;SHT31;51487;52.266;10.542;2023-08-30T05:22:35;13.31;91.56
64961;SHT31;51487;52.266;10.542;2023-08-30T05:25:00;13.39;91.57
64961;SHT31;51487;52.266;10.542;2023-08-30T05:27:27;13.48;91.57
64961;SHT31;51487;52.266;10.542;2023-08-30T05:29:53;13.54;91.50
64961;SHT31;51487;52.266;10.542;2023-08-30T05:32:18;13.59;90.99
64961;SHT31;51487;52.266;10.542;2023-08-30T05:34:44;13.75;90.61
64961;SHT31;51487;52.266;10.542;2023-08-30T05:37:09;13.80;90.51
64961;SHT31;51487;52.266;10.542;2023-08-30T05:39:35;13.91;90.24
64961;SHT31;51487;52.266;10.542;2023-08-30T05:42:00;14.02;90.23
64961;SHT31;51487;52.266;10.542;2023-08-30T05:44:26;14.12;89.97
64961;SHT31;51487;52.266;10.542;2023-08-30T05:46:52;14.18;89.88
64961;SHT31;51487;52.266;10.542;2023-08-30T05:49:17;14.21;89.52
64961;SHT31;51487;52.266;10.542;2023-08-30T05:51:42;14.31;89.20
64961;SHT31;51487;52.266;10.542;2023-08-30T05:54:08;14.38;89.58
64961;SHT31;51487;52.266;10.542;2023-08-30T05:56:33;14.49;89.00
64961;SHT31;51487;52.266;10.542;2023-08-30T05:58:59;14.51;88.89
64961;SHT31;51487;52.266;10.542;2023-08-30T06:01:24;14.55;88.65
64961;SHT31;51487;52.266;10.542;2023-08-30T06:03:50;14.58;88.79
64961;SHT31;51487;52.266;10.542;2023-08-30T06:06:16;14.69;88.82
64961;SHT31;51487;52.266;10.542;2023-08-30T06:08:42;14.75;88.73
64961;SHT31;51487;52.266;10.542;2023-08-30T06:11:08;14.91;88.27
64961;SHT31;51487;52.266;10.542;2023-08-30T06:13:33;14.89;87.49
64961;SHT31;51487;52.266;10.542;2023-08-30T06:15:59;15.06;87.30
64961;SHT31;51487;52.266;10.542;2023-08-30T06:18:30;15.14;87.70
64961;SHT31;51487;52.266;10.542;2023-08-30T06:20:55;15.14;87.55
64961;SHT31;51487;52.266;10.542;2023-08-30T06:23:21;15.27;87.59
64961;SHT31;51487;52.266;10.542;2023-08-30T06:25:56;15.26;87.10
64961;SHT31;51487;52.266;10.542;2023-08-30T06:28:22;15.37;86.87
64961;SHT31;51487;52.266;10.542;2023-08-30T06:30:49;15.32;86.94
64961;SHT31;51487;52.266;10.542;2023-08-30T06:33:14;15.39;86.99
64961;SHT31;51487;52.266;10.542;2023-08-30T06:35:40;15.40;86.57
64961;SHT31;51487;52.266;10.542;2023-08-30T06:38:06;15.50;86.74
64961;SHT31;51487;52.266;10.542;2023-08-30T06:40:32;15.65;86.58
64961;SHT31;51487;52.266;10.542;2023-08-30T06:42:58;15.68;86.55
64961;SHT31;51487;52.266;10.542;2023-08-30T06:45:25;15.77;86.14
64961;SHT31;51487;52.266;10.542;2023-08-30T06:47:50;15.81;86.24
64961;SHT31;51487;52.266;10.542;2023-08-30T06:50:18;15.82;85.82
64961;SHT31;51487;52.266;10.542;2023-08-30T06:52:43;15.98;85.75
64961;SHT31;51487;52.266;10.542;2023-08-30T06:55:09;16.06;85.55
64961;SHT31;51487;52.266;10.542;2023-08-30T06:57:34;16.06;85.26
64961;SHT31;51487;52.266;10.542;2023-08-30T07:00:00;16.11;85.31
64961;SHT31;51487;52.266;10.542;2023-08-30T07:02:37;16.16;85.31
64961;SHT31;51487;52.266;10.542;2023-08-30T07:05:03;16.18;85.38
64961;SHT31;51487;52.266;10.542;2023-08-30T07:07:30;16.22;85.77
64961;SHT31;51487;52.266;10.542;2023-08-30T07:09:56;16.26;86.54
64961;SHT31;51487;52.266;10.542;2023-08-30T07:12:22;16.22;85.67
64961;SHT31;51487;52.266;10.542;2023-08-30T07:14:47;16.28;85.43
64961;SHT31;51487;52.266;10.542;2023-08-30T07:17:13;16.30;85.28
64961;SHT31;51487;52.266;10.542;2023-08-30T07:19:39;16.36;85.27
64961;SHT31;51487;52.266;10.542;2023-08-30T07:22:04;16.42;84.74
64961;SHT31;51487;52.266;10.542;2023-08-30T07:24:30;16.50;84.99
64961;SHT31;51487;52.266;10.542;2023-08-30T07:26:55;16.55;85.17
64961;SHT31;51487;52.266;10.542;2023-08-30T07:29:21;16.52;84.51
64961;SHT31;51487;52.266;10.542;2023-08-30T07:31:47;16.60;84.59
64961;SHT31;51487;52.266;10.542;2023-08-30T07:34:12;16.70;84.71
64961;SHT31;51487;52.266;10.542;2023-08-30T07:36:38;16.74;84.45
64961;SHT31;51487;52.266;10.542;2023-08-30T07:39:04;16.84;84.29
64961;SHT31;51487;52.266;10.542;2023-08-30T07:41:31;16.87;84.44
64961;SHT31;51487;52.266;10.542;2023-08-30T07:43:56;16.81;84.38
64961;SHT31;51487;52.266;10.542;2023-08-30T07:46:22;16.90;84.49
64961;SHT31;51487;52.266;10.542;2023-08-30T07:48:47;16.88;84.00
64961;SHT31;51487;52.266;10.542;2023-08-30T07:51:13;16.90;84.42
64961;SHT31;51487;52.266;10.542;2023-08-30T07:53:38;16.98;83.83
64961;SHT31;51487;52.266;10.542;2023-08-30T07:56:04;17.04;83.86
64961;SHT31;51487;52.266;10.542;2023-08-30T07:58:29;17.14;83.54
64961;SHT31;51487;52.266;10.542;2023-08-30T08:00:55;17.22;83.64
64961;SHT31;51487;52.266;10.542;2023-08-30T08:03:21;17.25;83.43
64961;SHT31;51487;52.266;10.542;2023-08-30T08:05:47;17.31;82.83
64961;SHT31;51487;52.266;10.542;2023-08-30T08:08:12;17.36;83.46
64961;SHT31;51487;52.266;10.542;2023-08-30T08:10:41;17.45;82.43
64961;SHT31;51487;52.266;10.542;2023-08-30T08:13:07;17.50;82.46
64961;SHT31;51487;52.266;10.542;2023-08-30T08:15:32;17.45;80.94
64961;SHT31;51487;52.266;10.542;2023-08-30T08:18:00;17.50;81.86
64961;SHT31;51487;52.266;10.542;2023-08-30T08:20:26;17.49;81.43
64961;SHT31;51487;52.266;10.542;2023-08-30T08:22:52;17.53;82.98
64961;SHT31;51487;52.266;10.542;2023-08-30T08:25:17;17.50;81.38
64961;SHT31;51487;52.266;10.542;2023-08-30T08:27:43;17.52;81.14
64961;SHT31;51487;52.266;10.542;2023-08-30T08:30:09;17.65;81.63
64961;SHT31;51487;52.266;10.542;2023-08-30T08:32:36;17.59;80.30
64961;SHT31;51487;52.266;10.542;2023-08-30T08:35:01;17.62;80.35
64961;SHT31;51487;52.266;10.542;2023-08-30T08:37:28;17.63;80.89
64961;SHT31;51487;52.266;10.542;2023-08-30T08:39:53;17.65;80.47
64961;SHT31;51487;52.266;10.542;2023-08-30T08:42:20;17.79;79.14
64961;SHT31;51487;52.266;10.542;2023-08-30T08:44:54;17.89;79.41
64961;SHT31;51487;52.266;10.542;2023-08-30T08:47:20;17.91;79.99
64961;SHT31;51487;52.266;10.542;2023-08-30T08:49:51;17.96;79.97
64961;SHT31;51487;52.266;10.542;2023-08-30T08:52:16;18.03;79.53
64961;SHT31;51487;52.266;10.542;2023-08-30T08:54:43;18.07;79.52
64961;SHT31;51487;52.266;10.542;2023-08-30T08:57:09;18.14;79.38
64961;SHT31;51487;52.266;10.542;2023-08-30T08:59:35;18.18;78.39
64961;SHT31;51487;52.266;10.542;2023-08-30T09:02:02;18.27;77.92
64961;SHT31;51487;52.266;10.542;2023-08-30T09:04:31;18.34;77.62
64961;SHT31;51487;52.266;10.542;2023-08-30T09:07:01;18.45;77.87
64961;SHT31;51487;52.266;10.542;2023-08-30T09:09:27;18.47;77.76
64961;SHT31;51487;52.266;10.542;2023-08-30T09:11:53;18.51;77.94
64961;SHT31;51487;52.266;10.542;2023-08-30T09:14:19;18.54;77.10
64961;SHT31;51487;52.266;10.542;2023-08-30T09:17:01;18.64;75.95
64961;SHT31;51487;52.266;10.542;2023-08-30T09:19:27;18.66;75.35
64961;SHT31;51487;52.266;10.542;2023-08-30T09:21:55;18.72;75.54
64961;SHT31;51487;52.266;10.542;2023-08-30T09:24:22;18.85;74.58
64961;SHT31;51487;52.266;10.542;2023-08-30T09:26:52;18.81;74.22
64961;SHT31;51487;52.266;10.542;2023-08-30T09:29:20;18.91;74.94
64961;SHT31;51487;52.266;10.542;2023-08-30T09:31:52;19.02;74.38
64961;SHT31;51487;52.266;10.542;2023-08-30T09:34:26;19.13;73.67
64961;SHT31;51487;52.266;10.542;2023-08-30T09:36:53;19.19;73.21
64961;SHT31;51487;52.266;10.542;2023-08-30T09:39:19;19.22;71.23
64961;SHT31;51487;52.266;10.542;2023-08-30T09:41:49;19.34;71.90
64961;SHT31;51487;52.266;10.542;2023-08-30T09:44:20;19.50;71.69
64961;SHT31;51487;52.266;10.542;2023-08-30T09:46:54;19.55;70.63
64961;SHT31;51487;52.266;10.542;2023-08-30T09:49:23;19.60;72.65
64961;SHT31;51487;52.266;10.542;2023-08-30T09:51:51;19.73;72.42
64961;SHT31;51487;52.266;10.542;2023-08-30T09:54:27;19.78;72.44
64961;SHT31;51487;52.266;10.542;2023-08-30T09:56:55;19.88;72.65
64961;SHT31;51487;52.266;10.542;2023-08-30T09:59:23;19.99;71.04
64961;SHT31;51487;52.266;10.542;2023-08-30T10:01:49;19.99;70.89
64961;SHT31;51487;52.266;10.542;2023-08-30T10:04:16;20.16;71.04
64961;SHT31;51487;52.266;10.542;2023-08-30T10:06:43;20.15;70.95
64961;SHT31;51487;52.266;10.542;2023-08-30T10:09:09;20.26;69.54
64961;SHT31;51487;52.266;10.542;2023-08-30T10:11:36;20.21;69.55
64961;SHT31;51487;52.266;10.542;2023-08-30T10:14:04;20.25;69.65
64961;SHT31;51487;52.266;10.542;2023-08-30T10:16:47;20.37;70.19
64961;SHT31;51487;52.266;10.542;2023-08-30T10:19:28;20.54;67.94
64961;SHT31;51487;52.266;10.542;2023-08-30T10:22:04;20.47;69.95
64961;SHT31;51487;52.266;10.542;2023-08-30T10:24:37;20.71;67.39
64961;SHT31;51487;52.266;10.542;2023-08-30T10:27:08;20.39;69.40
64961;SHT31;51487;52.266;10.542;2023-08-30T10:29:35;20.42;69.26
64961;SHT31;51487;52.266;10.542;2023-08-30T10:32:05;20.46;68.86
64961;SHT31;51487;52.266;10.542;2023-08-30T10:34:33;20.63;69.32
64961;SHT31;51487;52.266;10.542;2023-08-30T10:37:11;20.69;68.19
64961;SHT31;51487;52.266;10.542;2023-08-30T10:39:41;20.71;69.04
64961;SHT31;51487;52.266;10.542;2023-08-30T10:42:15;20.66;68.57
64961;SHT31;51487;52.266;10.542;2023-08-30T10:44:59;20.69;67.64
64961;SHT31;51487;52.266;10.542;2023-08-30T10:47:27;20.71;68.06
64961;SHT31;51487;52.266;10.542;2023-08-30T10:50:00;20.76;67.94
64961;SHT31;51487;52.266;10.542;2023-08-30T10:52:30;20.63;68.96
64961;SHT31;51487;52.266;10.542;2023-08-30T10:55:14;20.54;68.88
64961;SHT31;51487;52.266;10.542;2023-08-30T10:57:44;20.57;69.54
64961;SHT31;51487;52.266;10.542;2023-08-30T11:00:21;20.69;68.59
64961;SHT31;51487;52.266;10.542;2023-08-30T11:02:51;20.77;67.71
64961;SHT31;51487;52.266;10.542;2023-08-30T11:05:21;20.98;67.23
64961;SHT31;51487;52.266;10.542;2023-08-30T11:07:46;21.10;65.99
64961;SHT31;51487;52.266;10.542;2023-08-30T11:10:14;21.10;65.29
64961;SHT31;51487;52.266;10.542;2023-08-30T11:12:41;21.25;64.80
64961;SHT31;51487;52.266;10.542;2023-08-30T11:15:09;20.97;65.62
64961;SHT31;51487;52.266;10.542;2023-08-30T11:17:35;20.98;66.34
64961;SHT31;51487;52.266;10.542;2023-08-30T11:20:08;20.97;66.84
64961;SHT31;51487;52.266;10.542;2023-08-30T11:22:43;20.88;65.54
64961;SHT31;51487;52.266;10.542;2023-08-30T11:25:11;20.94;66.59
64961;SHT31;51487;52.266;10.542;2023-08-30T11:27:38;20.91;66.62
64961;SHT31;51487;52.266;10.542;2023-08-30T11:30:05;20.92;66.55
64961;SHT31;51487;52.266;10.542;2023-08-30T11:32:36;20.95;66.34
64961;SHT31;51487;52.266;10.542;2023-08-30T11:35:03;20.91;66.55
64961;SHT31;51487;52.266;10.542;2023-08-30T11:37:29;20.88;66.71
64961;SHT31;51487;52.266;10.542;2023-08-30T11:39:55;20.90;66.92
64961;SHT31;51487;52.266;10.542;2023-08-30T11:42:22;21.00;67.53
64961;SHT31;51487;52.266;10.542;2023-08-30T11:44:48;20.92;66.60
64961;SHT31;51487;52.266;10.542;2023-08-30T11:47:23;20.98;66.49
64961;SHT31;51487;52.266;10.542;2023-08-30T11:49:53;20.95;67.33
64961;SHT31;51487;52.266;10.542;2023-08-30T11:52:20;20.98;68.28
64961;SHT31;51487;52.266;10.542;2023-08-30T11:54:47;21.08;68.49
64961;SHT31;51487;52.266;10.542;2023-08-30T11:57:13;21.18;68.06
64961;SHT31;51487;52.266;10.542;2023-08-30T11:59:39;21.27;67.16
64961;SHT31;51487;52.266;10.542;2023-08-30T12:02:06;21.17;64.83
64961;SHT31;51487;52.266;10.542;2023-08-30T12:04:32;21.24;64.79
64961;SHT31;51487;52.266;10.542;2023-08-30T12:06:58;21.27;66.16
64961;SHT31;51487;52.266;10.542;2023-08-30T12:09:30;21.21;67.53
64961;SHT31;51487;52.266;10.542;2023-08-30T12:12:11;21.10;66.57
64961;SHT31;51487;52.266;10.542;2023-08-30T12:14:38;21.12;65.90
64961;SHT31;51487;52.266;10.542;2023-08-30T12:17:04;21.05;65.81
64961;SHT31;51487;52.266;10.542;2023-08-30T12:19:31;21.01;66.26
64961;SHT31;51487;52.266;10.542;2023-08-30T12:22:04;20.97;67.26
64961;SHT31;51487;52.266;10.542;2023-08-30T12:24:50;21.14;67.20
64961;SHT31;51487;52.266;10.542;2023-08-30T12:27:15;21.20;67.11
64961;SHT31;51487;52.266;10.542;2023-08-30T12:29:41;21.00;66.01
64961;SHT31;51487;52.266;10.542;2023-08-30T12:32:07;21.12;66.39
64961;SHT31;51487;52.266;10.542;2023-08-30T12:34:34;20.92;68.78
64961;SHT31;51487;52.266;10.542;2023-08-30T12:36:59;20.80;69.04
64961;SHT31;51487;52.266;10.542;2023-08-30T12:39:25;20.59;68.43
64961;SHT31;51487;52.266;10.542;2023-08-30T12:41:51;20.67;68.73
64961;SHT31;51487;52.266;10.542;2023-08-30T12:44:16;20.69;68.07
64961;SHT31;51487;52.266;10.542;2023-08-30T12:46:42;20.54;69.26
64961;SHT31;51487;52.266;10.542;2023-08-30T12:49:07;20.56;68.94
64961;SHT31;51487;52.266;10.542;2023-08-30T12:51:33;20.50;69.18
64961;SHT31;51487;52.266;10.542;2023-08-30T12:53:58;20.50;69.85
64961;SHT31;51487;52.266;10.542;2023-08-30T12:56:24;20.44;69.71
64961;SHT31;51487;52.266;10.542;2023-08-30T12:58:49;20.62;69.00
64961;SHT31;51487;52.266;10.542;2023-08-30T13:01:16;20.76;70.19
64961;SHT31;51487;52.266;10.542;2023-08-30T13:03:42;20.84;69.00
64961;SHT31;51487;52.266;10.542;2023-08-30T13:06:07;20.83;70.25
64961;SHT31;51487;52.266;10.542;2023-08-30T13:08:33;20.88;68.00
64961;SHT31;51487;52.266;10.542;2023-08-30T13:11:01;21.07;67.58
64961;SHT31;51487;52.266;10.542;2023-08-30T13:13:27;21.17;67.45
64961;SHT31;51487;52.266;10.542;2023-08-30T13:15:52;21.29;67.32
64961;SHT31;51487;52.266;10.542;2023-08-30T13:18:18;21.32;66.73
64961;SHT31;51487;52.266;10.542;2023-08-30T13:20:44;21.35;66.74
64961;SHT31;51487;52.266;10.542;2023-08-30T13:23:10;21.32;67.25
64961;SHT31;51487;52.266;10.542;2023-08-30T13:25:41;21.48;66.13
64961;SHT31;51487;52.266;10.542;2023-08-30T13:28:07;21.58;64.52
64961;SHT31;51487;52.266;10.542;2023-08-30T13:30:33;21.78;63.96
64961;SHT31;51487;52.266;10.542;2023-08-30T13:32:59;21.99;63.61
64961;SHT31;51487;52.266;10.542;2023-08-30T13:35:25;21.87;64.05
64961;SHT31;51487;52.266;10.542;2023-08-30T13:37:50;21.90;64.74
64961;SHT31;51487;52.266;10.542;2023-08-30T13:40:16;21.94;64.91
64961;SHT31;51487;52.266;10.542;2023-08-30T13:42:42;22.00;64.88
64961;SHT31;51487;52.266;10.542;2023-08-30T13:45:08;22.00;65.02
64961;SHT31;51487;52.266;10.542;2023-08-30T13:47:35;21.89;65.07
64961;SHT31;51487;52.266;10.542;2023-08-30T13:50:01;21.96;64.84
64961;SHT31;51487;52.266;10.542;2023-08-30T13:52:27;21.82;64.98
64961;SHT31;51487;52.266;10.542;2023-08-30T13:54:54;21.79;64.94
64961;SHT31;51487;52.266;10.542;2023-08-30T13:57:20;21.78;65.14
64961;SHT31;51487;52.266;10.542;2023-08-30T13:59:45;21.67;65.78
64961;SHT31;51487;52.266;10.542;2023-08-30T14:02:11;21.65;65.99
64961;SHT31;51487;52.266;10.542;2023-08-30T14:04:36;21.62;66.89
64961;SHT31;51487;52.266;10.542;2023-08-30T14:07:02;21.58;67.34
64961;SHT31;51487;52.266;10.542;2023-08-30T14:09:29;21.65;67.23
64961;SHT31;51487;52.266;10.542;2023-08-30T14:11:54;21.82;66.19
64961;SHT31;51487;52.266;10.542;2023-08-30T14:14:20;22.00;66.23
64961;SHT31;51487;52.266;10.542;2023-08-30T14:16:46;22.17;65.87
64961;SHT31;51487;52.266;10.542;2023-08-30T14:19:11;22.17;64.91
64961;SHT31;51487;52.266;10.542;2023-08-30T14:21:37;22.30;64.52
64961;SHT31;51487;52.266;10.542;2023-08-30T14:24:03;22.18;63.11
64961;SHT31;51487;52.266;10.542;2023-08-30T14:26:29;22.22;62.87
64961;SHT31;51487;52.266;10.542;2023-08-30T14:28:54;22.03;62.70
64961;SHT31;51487;52.266;10.542;2023-08-30T14:31:20;22.04;63.19
64961;SHT31;51487;52.266;10.542;2023-08-30T14:33:45;21.96;62.72
64961;SHT31;51487;52.266;10.542;2023-08-30T14:36:12;21.96;62.96
64961;SHT31;51487;52.266;10.542;2023-08-30T14:38:38;21.85;63.05
64961;SHT31;51487;52.266;10.542;2023-08-30T14:41:04;22.00;64.03
64961;SHT31;51487;52.266;10.542;2023-08-30T14:43:30;22.07;62.48
64961;SHT31;51487;52.266;10.542;2023-08-30T14:46:00;22.10;62.99
64961;SHT31;51487;52.266;10.542;2023-08-30T14:48:26;22.00;61.96
64961;SHT31;51487;52.266;10.542;2023-08-30T14:50:52;22.11;62.75
64961;SHT31;51487;52.266;10.542;2023-08-30T14:53:17;21.99;64.00
64961;SHT31;51487;52.266;10.542;2023-08-30T14:55:46;21.75;63.81
64961;SHT31;51487;52.266;10.542;2023-08-30T14:58:12;21.59;64.89
64961;SHT31;51487;52.266;10.542;2023-08-30T15:00:39;21.46;65.35
64961;SHT31;51487;52.266;10.542;2023-08-30T15:03:04;21.45;65.99
64961;SHT31;51487;52.266;10.542;2023-08-30T15:05:30;21.35;67.66
64961;SHT31;51487;52.266;10.542;2023-08-30T15:07:56;21.34;66.07
64961;SHT31;51487;52.266;10.542;2023-08-30T15:10:22;21.29;66.45
64961;SHT31;51487;52.266;10.542;2023-08-30T15:12:47;21.21;65.68
64961;SHT31;51487;52.266;10.542;2023-08-30T15:15:14;21.12;66.35
64961;SHT31;51487;52.266;10.542;2023-08-30T15:17:40;20.97;66.37
64961;SHT31;51487;52.266;10.542;2023-08-30T15:20:09;20.79;67.70